sensor_id;sensor_type;location;lat;lon;timestamp;pressure;altitude;pressure_sealevel;temperature;humidity
24486;BME280;13449;49.374;8.584;2023-06-10T00:02:01;99980.56;;;22.06;44.01
24486;BME280;13449;49.374;8.584;2023-06-10T00:04:31;99971.69;;;21.99;44.03
24486;BME280;13449;49.374;8.584;2023-06-10T00:07:00;99976.41;;;21.97;43.99
24486;BME280;13449;49.374;8.584;2023-06-10T00:09:27;99981.34;;;21.93;44.59
24486;BME280;13449;49.374;8.584;2023-06-10T00:11:55;99977.63;;;21.88;44.43
24486;BME280;13449;49.374;8.584;2023-06-10T00:14:21;99980.09;;;21.82;44.72
24486;BME280;13449;49.374;8.584;2023-06-10T00:16:48;99983.97;;;21.73;45.41
24486;BME280;13449;49.374;8.584;2023-06-10T00:19:15;99980.47;;;21.73;44.73
24486;BME280;13449;49.374;8.584;2023-06-10T00:21:42;99981.28;;;21.73;44.71
24486;BME280;13449;49.374;8.584;2023-06-10T00:24:11;99969.94;;;21.71;44.90
24486;BME280;13449;49.374;8.584;2023-06-10T00:26:39;99977.53;;;21.61;45.33
24486;BME280;13449;49.374;8.584;2023-06-10T00:29:07;99978.56;;;21.60;45.14
24486;BME280;13449;49.374;8.584;2023-06-10T00:31:34;99980.81;;;21.57;45.25
24486;BME280;13449;49.374;8.584;2023-06-10T00:34:01;99987.00;;;21.50;45.91
24486;BME280;13449;49.374;8.584;2023-06-10T00:36:28;99984.13;;;21.52;46.20
24486;BME280;13449;49.374;8.584;2023-06-10T00:38:55;99977.31;;;21.49;45.97
24486;BME280;13449;49.374;8.584;2023-06-10T00:41:22;99984.88;;;21.39;46.62
24486;BME280;13449;49.374;8.584;2023-06-10T00:43:49;99986.00;;;21.23;46.99
24486;BME280;13449;49.374;8.584;2023-06-10T00:46:15;99990.84;;;21.07;47.77
24486;BME280;13449;49.374;8.584;2023-06-10T00:48:43;99995.78;;;21.03;47.46
24486;BME280;13449;49.374;8.584;2023-06-10T00:51:11;100002.38;;;21.01;47.75
24486;BME280;13449;49.374;8.584;2023-06-10T00:53:40;99990.97;;;20.92;48.61
24486;BME280;13449;49.374;8.584;2023-06-10T00:56:10;99993.25;;;20.95;47.46
24486;BME280;13449;49.374;8.584;2023-06-10T00:58:36;100009.63;;;20.79;49.06
24486;BME280;13449;49.374;8.584;2023-06-10T01:01:03;100007.50;;;20.68;49.35
24486;BME280;13449;49.374;8.584;2023-06-10T01:03:30;100006.69;;;20.74;48.98
24486;BME280;13449;49.374;8.584;2023-06-10T01:06:24;100005.97;;;20.58;49.91
24486;BME280;13449;49.374;8.584;2023-06-10T01:09:13;100013.78;;;20.60;50.11
24486;BME280;13449;49.374;8.584;2023-06-10T01:11:54;100013.59;;;20.61;48.78
24486;BME280;13449;49.374;8.584;2023-06-10T01:14:24;100004.25;;;20.79;47.66
24486;BME280;13449;49.374;8.584;2023-06-10T01:16:53;100007.94;;;20.99;47.81
24486;BME280;13449;49.374;8.584;2023-06-10T01:19:21;100012.97;;;20.87;49.10
24486;BME280;13449;49.374;8.584;2023-06-10T01:21:51;100007.22;;;20.90;47.68
24486;BME280;13449;49.374;8.584;2023-06-10T01:24:18;100006.19;;;20.85;48.19
24486;BME280;13449;49.374;8.584;2023-06-10T01:26:49;100023.63;;;20.81;49.30
24486;BME280;13449;49.374;8.584;2023-06-10T01:29:30;100012.28;;;20.79;48.26
24486;BME280;13449;49.374;8.584;2023-06-10T01:32:29;100008.69;;;20.93;46.83
24486;BME280;13449;49.374;8.584;2023-06-10T01:35:01;100012.97;;;21.15;45.99
24486;BME280;13449;49.374;8.584;2023-06-10T01:37:29;99993.34;;;21.43;45.08
24486;BME280;13449;49.374;8.584;2023-06-10T01:40:00;100008.56;;;21.36;45.88
24486;BME280;13449;49.374;8.584;2023-06-10T01:42:32;99992.72;;;21.41;45.10
24486;BME280;13449;49.374;8.584;2023-06-10T01:44:59;100005.91;;;21.36;46.11
24486;BME280;13449;49.374;8.584;2023-06-10T01:47:26;99996.81;;;21.37;45.70
24486;BME280;13449;49.374;8.584;2023-06-10T01:49:52;100000.16;;;21.45;45.38
24486;BME280;13449;49.374;8.584;2023-06-10T01:52:19;99998.53;;;21.51;45.11
24486;BME280;13449;49.374;8.584;2023-06-10T01:54:45;100006.72;;;21.43;45.96
24486;BME280;13449;49.374;8.584;2023-06-10T01:57:12;99997.28;;;21.47;45.12
24486;BME280;13449;49.374;8.584;2023-06-10T01:59:38;99998.94;;;21.48;45.27
24486;BME280;13449;49.374;8.584;2023-06-10T02:02:05;100001.38;;;21.43;45.43
24486;BME280;13449;49.374;8.584;2023-06-10T02:04:32;100003.66;;;21.46;45.38
24486;BME280;13449;49.374;8.584;2023-06-10T02:06:58;100005.91;;;21.42;45.32
24486;BME280;13449;49.374;8.584;2023-06-10T02:09:25;100008.34;;;21.31;46.02
24486;BME280;13449;49.374;8.584;2023-06-10T02:11:52;100014.16;;;21.13;46.67
24486;BME280;13449;49.374;8.584;2023-06-10T02:14:18;100006.91;;;21.00;46.96
24486;BME280;13449;49.374;8.584;2023-06-10T02:16:45;100024.97;;;20.98;47.26
24486;BME280;13449;49.374;8.584;2023-06-10T02:19:13;100026.75;;;20.56;49.38
24486;BME280;13449;49.374;8.584;2023-06-10T02:21:40;100036.22;;;20.38;50.75
24486;BME280;13449;49.374;8.584;2023-06-10T02:24:09;100038.81;;;20.31;51.46
24486;BME280;13449;49.374;8.584;2023-06-10T02:26:36;100046.28;;;19.99;53.01
24486;BME280;13449;49.374;8.584;2023-06-10T02:29:02;100048.56;;;19.81;53.02
24486;BME280;13449;49.374;8.584;2023-06-10T02:31:29;100040.38;;;19.68;53.93
24486;BME280;13449;49.374;8.584;2023-06-10T02:34:01;100053.38;;;19.41;54.40
24486;BME280;13449;49.374;8.584;2023-06-10T02:36:29;100043.41;;;19.35;54.81
24486;BME280;13449;49.374;8.584;2023-06-10T02:38:55;100057.13;;;19.18;55.67
24486;BME280;13449;49.374;8.584;2023-06-10T02:41:22;100064.84;;;19.12;56.67
24486;BME280;13449;49.374;8.584;2023-06-10T02:43:49;100064.75;;;19.06;56.25
24486;BME280;13449;49.374;8.584;2023-06-10T02:46:15;100067.66;;;18.81;57.24
24486;BME280;13449;49.374;8.584;2023-06-10T02:48:45;100064.91;;;18.90;57.17
24486;BME280;13449;49.374;8.584;2023-06-10T02:51:12;100074.53;;;18.76;57.07
24486;BME280;13449;49.374;8.584;2023-06-10T02:53:40;100077.81;;;18.63;57.37
24486;BME280;13449;49.374;8.584;2023-06-10T02:56:08;100072.28;;;18.65;56.82
24486;BME280;13449;49.374;8.584;2023-06-10T02:58:35;100074.88;;;18.50;58.35
24486;BME280;13449;49.374;8.584;2023-06-10T03:01:01;100075.25;;;18.47;58.55
24486;BME280;13449;49.374;8.584;2023-06-10T03:03:28;100075.88;;;18.49;57.83
24486;BME280;13449;49.374;8.584;2023-06-10T03:05:55;100082.44;;;18.38;58.85
24486;BME280;13449;49.374;8.584;2023-06-10T03:08:22;100077.69;;;18.25;59.10
24486;BME280;13449;49.374;8.584;2023-06-10T03:10:49;100089.44;;;18.16;59.30
24486;BME280;13449;49.374;8.584;2023-06-10T03:13:16;100084.78;;;18.10;59.88
24486;BME280;13449;49.374;8.584;2023-06-10T03:15:48;100077.16;;;18.07;59.47
24486;BME280;13449;49.374;8.584;2023-06-10T03:18:14;100090.91;;;17.88;61.15
24486;BME280;13449;49.374;8.584;2023-06-10T03:20:41;100101.41;;;17.89;61.02
24486;BME280;13449;49.374;8.584;2023-06-10T03:23:09;100096.53;;;17.93;59.98
24486;BME280;13449;49.374;8.584;2023-06-10T03:25:36;100094.94;;;17.84;60.04
24486;BME280;13449;49.374;8.584;2023-06-10T03:28:02;100099.94;;;17.79;59.62
24486;BME280;13449;49.374;8.584;2023-06-10T03:30:29;100109.25;;;17.66;61.72
24486;BME280;13449;49.374;8.584;2023-06-10T03:32:59;100113.31;;;17.54;62.47
24486;BME280;13449;49.374;8.584;2023-06-10T03:35:25;100120.78;;;17.51;63.97
24486;BME280;13449;49.374;8.584;2023-06-10T03:37:52;100117.34;;;17.42;62.26
24486;BME280;13449;49.374;8.584;2023-06-10T03:40:18;100113.81;;;17.50;63.07
24486;BME280;13449;49.374;8.584;2023-06-10T03:42:48;100107.00;;;17.47;61.77
24486;BME280;13449;49.374;8.584;2023-06-10T03:45:14;100121.13;;;17.48;62.97
24486;BME280;13449;49.374;8.584;2023-06-10T03:47:41;100117.00;;;17.45;62.74
24486;BME280;13449;49.374;8.584;2023-06-10T03:50:10;100115.81;;;17.48;61.41
24486;BME280;13449;49.374;8.584;2023-06-10T03:52:38;100105.81;;;17.58;60.47
24486;BME280;13449;49.374;8.584;2023-06-10T03:55:05;100114.63;;;17.58;62.23
24486;BME280;13449;49.374;8.584;2023-06-10T03:57:32;100125.63;;;17.47;63.02
24486;BME280;13449;49.374;8.584;2023-06-10T03:59:58;100113.97;;;17.48;63.30
24486;BME280;13449;49.374;8.584;2023-06-10T04:02:27;100115.97;;;17.54;62.60
24486;BME280;13449;49.374;8.584;2023-06-10T04:04:59;100113.63;;;17.59;62.43
24486;BME280;13449;49.374;8.584;2023-06-10T04:07:26;100117.94;;;17.60;62.72
24486;BME280;13449;49.374;8.584;2023-06-10T04:09:56;100120.25;;;17.63;63.21
24486;BME280;13449;49.374;8.584;2023-06-10T04:12:22;100105.63;;;17.67;61.44
24486;BME280;13449;49.374;8.584;2023-06-10T04:14:52;100125.78;;;17.70;62.37
24486;BME280;13449;49.374;8.584;2023-06-10T04:17:19;100108.94;;;17.78;61.81
24486;BME280;13449;49.374;8.584;2023-06-10T04:19:46;100133.25;;;17.75;63.19
24486;BME280;13449;49.374;8.584;2023-06-10T04:22:15;100124.25;;;17.76;62.93
24486;BME280;13449;49.374;8.584;2023-06-10T04:24:42;100129.22;;;17.79;63.29
24486;BME280;13449;49.374;8.584;2023-06-10T04:27:08;100151.38;;;17.79;63.83
24486;BME280;13449;49.374;8.584;2023-06-10T04:29:35;100127.22;;;17.81;63.28
24486;BME280;13449;49.374;8.584;2023-06-10T04:32:05;100134.53;;;17.87;63.23
24486;BME280;13449;49.374;8.584;2023-06-10T04:34:33;100142.19;;;17.90;63.96
24486;BME280;13449;49.374;8.584;2023-06-10T04:37:00;100138.88;;;17.88;64.12
24486;BME280;13449;49.374;8.584;2023-06-10T04:39:29;100141.50;;;17.96;63.41
24486;BME280;13449;49.374;8.584;2023-06-10T04:41:55;100145.34;;;17.93;65.21
24486;BME280;13449;49.374;8.584;2023-06-10T04:44:24;100126.13;;;18.06;62.45
24486;BME280;13449;49.374;8.584;2023-06-10T04:46:51;100147.09;;;18.09;64.39
24486;BME280;13449;49.374;8.584;2023-06-10T04:49:18;100143.44;;;18.10;64.38
24486;BME280;13449;49.374;8.584;2023-06-10T04:51:44;100150.06;;;18.14;64.80
24486;BME280;13449;49.374;8.584;2023-06-10T04:54:13;100143.00;;;18.30;63.66
24486;BME280;13449;49.374;8.584;2023-06-10T04:56:43;100134.97;;;18.38;62.33
24486;BME280;13449;49.374;8.584;2023-06-10T04:59:09;100150.88;;;18.46;65.23
24486;BME280;13449;49.374;8.584;2023-06-10T05:01:38;100143.16;;;18.59;62.83
24486;BME280;13449;49.374;8.584;2023-06-10T05:04:07;100126.34;;;18.81;60.03
24486;BME280;13449;49.374;8.584;2023-06-10T05:06:34;100138.91;;;18.96;60.76
24486;BME280;13449;49.374;8.584;2023-06-10T05:09:02;100144.13;;;19.12;60.53
24486;BME280;13449;49.374;8.584;2023-06-10T05:11:29;100138.63;;;19.28;59.17
24486;BME280;13449;49.374;8.584;2023-06-10T05:13:58;100141.50;;;19.41;59.28
24486;BME280;13449;49.374;8.584;2023-06-10T05:16:27;100132.34;;;19.59;57.06
24486;BME280;13449;49.374;8.584;2023-06-10T05:18:54;100144.19;;;19.71;57.57
24486;BME280;13449;49.374;8.584;2023-06-10T05:21:20;100140.50;;;19.87;56.64
24486;BME280;13449;49.374;8.584;2023-06-10T05:23:47;100129.63;;;20.03;55.61
24486;BME280;13449;49.374;8.584;2023-06-10T05:26:14;100146.03;;;20.15;57.65
24486;BME280;13449;49.374;8.584;2023-06-10T05:28:41;100141.22;;;20.25;55.60
24486;BME280;13449;49.374;8.584;2023-06-10T05:31:10;100136.03;;;20.38;55.86
24486;BME280;13449;49.374;8.584;2023-06-10T05:33:37;100137.84;;;20.52;55.72
24486;BME280;13449;49.374;8.584;2023-06-10T05:36:05;100139.63;;;20.67;56.60
24486;BME280;13449;49.374;8.584;2023-06-10T05:38:34;100138.94;;;20.79;54.63
24486;BME280;13449;49.374;8.584;2023-06-10T05:41:03;100141.09;;;20.90;55.57
24486;BME280;13449;49.374;8.584;2023-06-10T05:43:30;100137.91;;;21.02;55.12
24486;BME280;13449;49.374;8.584;2023-06-10T05:45:59;100143.00;;;21.18;55.11
24486;BME280;13449;49.374;8.584;2023-06-10T05:48:25;100138.59;;;21.32;53.50
24486;BME280;13449;49.374;8.584;2023-06-10T05:50:52;100122.16;;;21.41;52.72
24486;BME280;13449;49.374;8.584;2023-06-10T05:53:19;100142.06;;;21.60;52.88
24486;BME280;13449;49.374;8.584;2023-06-10T05:55:48;100139.63;;;21.65;52.38
24486;BME280;13449;49.374;8.584;2023-06-10T05:58:16;100127.97;;;21.79;51.64
24486;BME280;13449;49.374;8.584;2023-06-10T06:00:43;100129.84;;;21.92;49.08
24486;BME280;13449;49.374;8.584;2023-06-10T06:03:12;100127.66;;;22.02;50.04
24486;BME280;13449;49.374;8.584;2023-06-10T06:05:39;100128.34;;;22.11;50.68
24486;BME280;13449;49.374;8.584;2023-06-10T06:08:08;100133.09;;;22.22;50.54
24486;BME280;13449;49.374;8.584;2023-06-10T06:10:34;100126.19;;;22.41;48.75
24486;BME280;13449;49.374;8.584;2023-06-10T06:13:04;100128.88;;;22.48;48.62
24486;BME280;13449;49.374;8.584;2023-06-10T06:15:30;100121.44;;;22.56;47.05
24486;BME280;13449;49.374;8.584;2023-06-10T06:17:57;100143.75;;;22.70;50.66
24486;BME280;13449;49.374;8.584;2023-06-10T06:20:24;100127.66;;;22.70;47.47
24486;BME280;13449;49.374;8.584;2023-06-10T06:22:50;100130.63;;;22.88;49.91
24486;BME280;13449;49.374;8.584;2023-06-10T06:25:17;100142.59;;;22.99;52.06
24486;BME280;13449;49.374;8.584;2023-06-10T06:27:43;100132.25;;;23.02;50.09
24486;BME280;13449;49.374;8.584;2023-06-10T06:30:10;100137.41;;;23.17;49.06
24486;BME280;13449;49.374;8.584;2023-06-10T06:32:41;100127.72;;;23.10;47.60
24486;BME280;13449;49.374;8.584;2023-06-10T06:35:08;100147.16;;;23.25;49.99
24486;BME280;13449;49.374;8.584;2023-06-10T06:37:35;100139.50;;;23.15;48.14
24486;BME280;13449;49.374;8.584;2023-06-10T06:40:02;100139.94;;;23.06;48.07
24486;BME280;13449;49.374;8.584;2023-06-10T06:42:30;100153.31;;;23.45;51.95
24486;BME280;13449;49.374;8.584;2023-06-10T06:44:57;100141.34;;;23.41;48.71
24486;BME280;13449;49.374;8.584;2023-06-10T06:47:26;100149.59;;;23.59;49.75
24486;BME280;13449;49.374;8.584;2023-06-10T06:49:53;100161.97;;;23.80;51.30
24486;BME280;13449;49.374;8.584;2023-06-10T06:52:19;100148.72;;;23.85;49.00
24486;BME280;13449;49.374;8.584;2023-06-10T06:54:45;100147.66;;;23.93;48.68
24486;BME280;13449;49.374;8.584;2023-06-10T06:57:12;100139.38;;;23.95;45.61
24486;BME280;13449;49.374;8.584;2023-06-10T06:59:38;100155.34;;;23.89;49.46
24486;BME280;13449;49.374;8.584;2023-06-10T07:02:07;100151.53;;;24.10;49.09
24486;BME280;13449;49.374;8.584;2023-06-10T07:04:39;100154.34;;;24.29;48.91
24486;BME280;13449;49.374;8.584;2023-06-10T07:07:07;100144.78;;;24.46;48.44
24486;BME280;13449;49.374;8.584;2023-06-10T07:09:35;100142.94;;;24.40;48.30
24486;BME280;13449;49.374;8.584;2023-06-10T07:12:01;100150.50;;;24.56;47.92
24486;BME280;13449;49.374;8.584;2023-06-10T07:14:28;100140.69;;;24.68;45.88
24486;BME280;13449;49.374;8.584;2023-06-10T07:16:57;100141.25;;;24.77;45.62
24486;BME280;13449;49.374;8.584;2023-06-10T07:19:27;100132.78;;;24.73;45.14
24486;BME280;13449;49.374;8.584;2023-06-10T07:21:55;100147.88;;;24.81;47.06
24486;BME280;13449;49.374;8.584;2023-06-10T07:24:22;100146.09;;;25.00;46.89
24486;BME280;13449;49.374;8.584;2023-06-10T07:26:50;100137.72;;;25.08;44.32
24486;BME280;13449;49.374;8.584;2023-06-10T07:29:16;100156.22;;;25.29;47.10
24486;BME280;13449;49.374;8.584;2023-06-10T07:31:46;100132.09;;;25.34;43.81
24486;BME280;13449;49.374;8.584;2023-06-10T07:34:13;100132.25;;;25.39;43.85
24486;BME280;13449;49.374;8.584;2023-06-10T07:36:41;100136.09;;;25.50;45.20
24486;BME280;13449;49.374;8.584;2023-06-10T07:39:08;100140.88;;;25.73;45.06
24486;BME280;13449;49.374;8.584;2023-06-10T07:41:35;100122.41;;;25.52;42.12
24486;BME280;13449;49.374;8.584;2023-06-10T07:44:02;100119.31;;;25.73;41.74
24486;BME280;13449;49.374;8.584;2023-06-10T07:46:30;100120.50;;;25.77;42.84
24486;BME280;13449;49.374;8.584;2023-06-10T07:48:59;100125.06;;;25.77;44.06
24486;BME280;13449;49.374;8.584;2023-06-10T07:51:26;100118.97;;;26.00;44.04
24486;BME280;13449;49.374;8.584;2023-06-10T07:53:55;100108.78;;;25.83;41.78
24486;BME280;13449;49.374;8.584;2023-06-10T07:56:22;100115.56;;;25.74;42.32
24486;BME280;13449;49.374;8.584;2023-06-10T07:58:52;100117.31;;;25.98;44.36
24486;BME280;13449;49.374;8.584;2023-06-10T08:01:22;100116.88;;;26.02;42.12
24486;BME280;13449;49.374;8.584;2023-06-10T08:03:48;100104.19;;;26.20;40.80
24486;BME280;13449;49.374;8.584;2023-06-10T08:06:15;100106.69;;;26.34;42.23
24486;BME280;13449;49.374;8.584;2023-06-10T08:08:44;100101.97;;;26.29;40.98
24486;BME280;13449;49.374;8.584;2023-06-10T08:11:11;100123.50;;;26.66;45.06
24486;BME280;13449;49.374;8.584;2023-06-10T08:13:40;100113.50;;;26.66;42.21
24486;BME280;13449;49.374;8.584;2023-06-10T08:16:09;100110.34;;;26.58;40.94
24486;BME280;13449;49.374;8.584;2023-06-10T08:18:36;100126.59;;;26.81;43.56
24486;BME280;13449;49.374;8.584;2023-06-10T08:21:02;100118.88;;;26.84;42.48
24486;BME280;13449;49.374;8.584;2023-06-10T08:23:29;100113.22;;;26.86;42.59
24486;BME280;13449;49.374;8.584;2023-06-10T08:25:56;100102.88;;;26.83;40.10
24486;BME280;13449;49.374;8.584;2023-06-10T08:28:23;100100.38;;;26.81;41.29
24486;BME280;13449;49.374;8.584;2023-06-10T08:30:52;100117.50;;;27.05;43.17
24486;BME280;13449;49.374;8.584;2023-06-10T08:33:22;100110.91;;;27.25;42.40
24486;BME280;13449;49.374;8.584;2023-06-10T08:35:49;100106.22;;;27.32;40.75
24486;BME280;13449;49.374;8.584;2023-06-10T08:38:15;100096.06;;;26.92;40.39
24486;BME280;13449;49.374;8.584;2023-06-10T08:40:42;100105.75;;;27.35;40.91
24486;BME280;13449;49.374;8.584;2023-06-10T08:43:22;100087.50;;;27.42;39.73
24486;BME280;13449;49.374;8.584;2023-06-10T08:45:55;100096.44;;;27.42;40.23
24486;BME280;13449;49.374;8.584;2023-06-10T08:48:27;100100.34;;;27.35;41.10
24486;BME280;13449;49.374;8.584;2023-06-10T08:50:56;100108.59;;;27.63;43.45
24486;BME280;13449;49.374;8.584;2023-06-10T08:53:24;100089.75;;;27.45;39.76
24486;BME280;13449;49.374;8.584;2023-06-10T08:55:53;100084.94;;;27.12;40.00
24486;BME280;13449;49.374;8.584;2023-06-10T08:58:20;100093.41;;;27.51;40.59
24486;BME280;13449;49.374;8.584;2023-06-10T09:00:47;100082.56;;;27.62;39.83
24486;BME280;13449;49.374;8.584;2023-06-10T09:03:14;100093.31;;;27.97;42.40
24486;BME280;13449;49.374;8.584;2023-06-10T09:05:41;100080.47;;;27.93;39.42
24486;BME280;13449;49.374;8.584;2023-06-10T09:08:08;100092.41;;;28.20;41.12
24486;BME280;13449;49.374;8.584;2023-06-10T09:10:40;100074.94;;;27.99;38.86
24486;BME280;13449;49.374;8.584;2023-06-10T09:13:07;100099.47;;;28.21;43.55
24486;BME280;13449;49.374;8.584;2023-06-10T09:15:33;100084.19;;;28.15;40.46
24486;BME280;13449;49.374;8.584;2023-06-10T09:18:00;100081.38;;;28.10;40.45
24486;BME280;13449;49.374;8.584;2023-06-10T09:20:27;100062.91;;;28.07;36.60
24486;BME280;13449;49.374;8.584;2023-06-10T09:22:53;100073.75;;;28.36;37.97
24486;BME280;13449;49.374;8.584;2023-06-10T09:25:34;100063.34;;;28.44;36.79
24486;BME280;13449;49.374;8.584;2023-06-10T09:28:02;100056.03;;;28.45;35.90
24486;BME280;13449;49.374;8.584;2023-06-10T09:30:31;100063.75;;;28.70;36.92
24486;BME280;13449;49.374;8.584;2023-06-10T09:33:00;100044.91;;;28.58;35.12
24486;BME280;13449;49.374;8.584;2023-06-10T09:35:32;100044.22;;;28.51;35.17
24486;BME280;13449;49.374;8.584;2023-06-10T09:38:00;100063.19;;;28.84;38.48
24486;BME280;13449;49.374;8.584;2023-06-10T09:40:28;100046.03;;;28.79;37.03
24486;BME280;13449;49.374;8.584;2023-06-10T09:42:56;100040.44;;;28.85;33.88
24486;BME280;13449;49.374;8.584;2023-06-10T09:45:25;100051.28;;;29.02;34.95
24486;BME280;13449;49.374;8.584;2023-06-10T09:47:54;100029.03;;;29.00;33.89
24486;BME280;13449;49.374;8.584;2023-06-10T09:50:22;100055.72;;;29.25;35.81
24486;BME280;13449;49.374;8.584;2023-06-10T09:52:49;100035.44;;;29.33;33.50
24486;BME280;13449;49.374;8.584;2023-06-10T09:55:17;100047.56;;;29.25;35.17
24486;BME280;13449;49.374;8.584;2023-06-10T09:57:43;100037.41;;;29.54;34.78
24486;BME280;13449;49.374;8.584;2023-06-10T10:00:14;100041.06;;;29.87;36.05
24486;BME280;13449;49.374;8.584;2023-06-10T10:02:45;100022.91;;;29.92;32.87
24486;BME280;13449;49.374;8.584;2023-06-10T10:05:15;100030.38;;;29.80;33.77
24486;BME280;13449;49.374;8.584;2023-06-10T10:07:43;100033.72;;;29.65;33.65
24486;BME280;13449;49.374;8.584;2023-06-10T10:10:10;100016.63;;;29.65;32.16
24486;BME280;13449;49.374;8.584;2023-06-10T10:12:38;100016.94;;;29.46;32.61
24486;BME280;13449;49.374;8.584;2023-06-10T10:15:07;100016.13;;;29.68;33.95
24486;BME280;13449;49.374;8.584;2023-06-10T10:17:40;100015.22;;;29.02;33.63
24486;BME280;13449;49.374;8.584;2023-06-10T10:20:12;100015.09;;;28.58;33.25
24486;BME280;13449;49.374;8.584;2023-06-10T10:22:40;100012.44;;;28.80;33.74
24486;BME280;13449;49.374;8.584;2023-06-10T10:25:14;100027.94;;;29.18;34.44
24486;BME280;13449;49.374;8.584;2023-06-10T10:27:53;100020.38;;;29.20;34.25
24486;BME280;13449;49.374;8.584;2023-06-10T10:30:22;100020.75;;;28.73;35.15
24486;BME280;13449;49.374;8.584;2023-06-10T10:32:57;100004.00;;;28.43;34.18
24486;BME280;13449;49.374;8.584;2023-06-10T10:35:25;100006.41;;;28.89;34.49
24486;BME280;13449;49.374;8.584;2023-06-10T10:37:55;100009.78;;;28.85;34.68
24486;BME280;13449;49.374;8.584;2023-06-10T10:40:25;100008.50;;;28.54;33.66
24486;BME280;13449;49.374;8.584;2023-06-10T10:42:56;100009.53;;;29.03;34.23
24486;BME280;13449;49.374;8.584;2023-06-10T10:45:27;100015.47;;;29.00;33.76
24486;BME280;13449;49.374;8.584;2023-06-10T10:47:58;99997.63;;;29.21;33.27
24486;BME280;13449;49.374;8.584;2023-06-10T10:50:28;100003.03;;;29.21;33.87
24486;BME280;13449;49.374;8.584;2023-06-10T10:53:03;99997.31;;;29.39;32.12
24486;BME280;13449;49.374;8.584;2023-06-10T10:55:31;99996.69;;;29.54;31.47
24486;BME280;13449;49.374;8.584;2023-06-10T11:00:38;99999.44;;;29.81;32.14
24486;BME280;13449;49.374;8.584;2023-06-10T11:03:15;99991.28;;;29.81;30.84
24486;BME280;13449;49.374;8.584;2023-06-10T11:05:47;99996.47;;;29.39;31.69
24486;BME280;13449;49.374;8.584;2023-06-10T11:10:59;99985.69;;;29.66;31.02
24486;BME280;13449;49.374;8.584;2023-06-10T11:13:26;99989.72;;;29.85;32.07
24486;BME280;13449;49.374;8.584;2023-06-10T11:15:57;99977.72;;;29.81;30.60
24486;BME280;13449;49.374;8.584;2023-06-10T11:18:30;99989.88;;;30.00;31.41
24486;BME280;13449;49.374;8.584;2023-06-10T11:21:03;99984.81;;;30.09;30.81
24486;BME280;13449;49.374;8.584;2023-06-10T11:23:38;99969.84;;;30.06;30.70
24486;BME280;13449;49.374;8.584;2023-06-10T11:26:18;99968.78;;;29.59;30.57
24486;BME280;13449;49.374;8.584;2023-06-10T11:31:20;99970.84;;;29.73;29.99
24486;BME280;13449;49.374;8.584;2023-06-10T11:33:52;99976.78;;;29.97;32.08
24486;BME280;13449;49.374;8.584;2023-06-10T11:36:22;99966.81;;;29.76;30.49
24486;BME280;13449;49.374;8.584;2023-06-10T11:38:50;99966.84;;;29.54;30.59
24486;BME280;13449;49.374;8.584;2023-06-10T11:41:19;99963.94;;;29.61;29.56
24486;BME280;13449;49.374;8.584;2023-06-10T11:43:47;99970.16;;;29.83;30.01
24486;BME280;13449;49.374;8.584;2023-06-10T11:46:14;99960.34;;;29.82;30.14
24486;BME280;13449;49.374;8.584;2023-06-10T11:48:57;99970.94;;;29.57;31.59
24486;BME280;13449;49.374;8.584;2023-06-10T11:51:27;99966.63;;;29.17;30.54
24486;BME280;13449;49.374;8.584;2023-06-10T11:53:54;99967.44;;;28.96;30.86
24486;BME280;13449;49.374;8.584;2023-06-10T12:01:25;99958.97;;;29.52;30.60
24486;BME280;13449;49.374;8.584;2023-06-10T12:04:04;99960.50;;;29.97;31.31
24486;BME280;13449;49.374;8.584;2023-06-10T12:06:57;99962.00;;;30.10;30.89
24486;BME280;13449;49.374;8.584;2023-06-10T12:09:26;99962.06;;;29.88;30.51
24486;BME280;13449;49.374;8.584;2023-06-10T12:12:02;99951.41;;;30.08;30.34
24486;BME280;13449;49.374;8.584;2023-06-10T12:14:52;99962.22;;;30.35;31.45
24486;BME280;13449;49.374;8.584;2023-06-10T12:17:38;99957.09;;;30.39;30.81
24486;BME280;13449;49.374;8.584;2023-06-10T12:20:08;99953.03;;;30.41;30.88
24486;BME280;13449;49.374;8.584;2023-06-10T12:22:40;99946.78;;;30.41;28.83
24486;BME280;13449;49.374;8.584;2023-06-10T12:25:08;99944.69;;;30.48;29.01
24486;BME280;13449;49.374;8.584;2023-06-10T12:27:37;99941.03;;;30.69;29.37
24486;BME280;13449;49.374;8.584;2023-06-10T12:30:05;99953.13;;;30.52;29.69
24486;BME280;13449;49.374;8.584;2023-06-10T12:35:12;99947.72;;;30.20;29.51
24486;BME280;13449;49.374;8.584;2023-06-10T12:37:43;99955.00;;;30.46;30.23
24486;BME280;13449;49.374;8.584;2023-06-10T12:40:26;99946.47;;;30.69;30.16
24486;BME280;13449;49.374;8.584;2023-06-10T12:42:54;99950.81;;;30.65;30.17
24486;BME280;13449;49.374;8.584;2023-06-10T12:45:32;99957.31;;;30.32;29.85
24486;BME280;13449;49.374;8.584;2023-06-10T12:50:40;99955.59;;;29.94;30.82
24486;BME280;13449;49.374;8.584;2023-06-10T12:53:07;99947.81;;;29.76;29.53
24486;BME280;13449;49.374;8.584;2023-06-10T12:55:36;99950.78;;;29.74;29.87
24486;BME280;13449;49.374;8.584;2023-06-10T12:58:03;99959.00;;;30.06;30.70
24486;BME280;13449;49.374;8.584;2023-06-10T13:00:30;99954.81;;;29.72;29.71
24486;BME280;13449;49.374;8.584;2023-06-10T13:03:00;99945.88;;;29.98;29.98
24486;BME280;13449;49.374;8.584;2023-06-10T13:05:29;99951.94;;;30.05;30.71
24486;BME280;13449;49.374;8.584;2023-06-10T13:08:00;99954.97;;;29.87;30.75
24486;BME280;13449;49.374;8.584;2023-06-10T13:10:27;99954.06;;;30.03;30.84
24486;BME280;13449;49.374;8.584;2023-06-10T13:12:53;99944.72;;;29.94;30.94
24486;BME280;13449;49.374;8.584;2023-06-10T13:15:23;99943.19;;;30.03;30.30
24486;BME280;13449;49.374;8.584;2023-06-10T13:17:49;99942.63;;;30.01;29.54
24486;BME280;13449;49.374;8.584;2023-06-10T13:20:18;99946.50;;;30.05;30.30